Time;durP1;ratioP1;P1;durP2;ratioP2;P2;SDS_P1;SDS_P2;PMS_P1;PMS_P2;Temp;Humidity;BMP_temperature;BMP_pressure;BME280_temperature;BME280_humidity;BME280_pressure;Samples;Min_cycle;Max_cycle;Signal;HPM_P1;HPM_P2
2021/01/01 00:00:15;;;;;;;24.13;14.18;;;20.60;39.70;;;;;;5076466;28;20074;-69
2021/01/01 00:02:41;;;;;;;29.92;16.35;;;20.60;39.70;;;;;;5076339;28;20024;-69
2021/01/01 00:05:07;;;;;;;26.02;14.82;;;20.60;39.70;;;;;;5075974;28;20024;-69
2021/01/01 00:07:33;;;;;;;26.77;14.60;;;20.60;39.70;;;;;;5060122;28;20043;-69
2021/01/01 00:09:59;;;;;;;24.08;13.85;;;20.60;40.40;;;;;;5095285;28;20028;-69
2021/01/01 00:12:25;;;;;;;29.88;15.43;;;20.50;39.80;;;;;;5094970;28;20043;-70
2021/01/01 00:14:51;;;;;;;25.77;13.95;;;20.60;39.80;;;;;;5094498;28;20060;-70
2021/01/01 00:17:16;;;;;;;27.10;15.95;;;20.50;39.80;;;;;;5076816;28;20028;-69
2021/01/01 00:19:42;;;;;;;27.25;14.63;;;20.50;39.80;;;;;;5095079;28;20051;-69
2021/01/01 00:22:11;;;;;;;21.70;12.93;;;20.50;39.80;;;;;;5076381;28;20035;-69
2021/01/01 00:24:37;;;;;;;28.85;15.45;;;20.50;39.80;;;;;;5077953;28;20024;-69
2021/01/01 00:27:03;;;;;;;24.00;14.15;;;20.50;39.80;;;;;;5094619;28;20020;-68
2021/01/01 00:29:29;;;;;;;27.25;14.55;;;20.50;39.90;;;;;;5092519;28;20040;-68
2021/01/01 00:35:17;;;;;;;24.00;13.30;;;20.40;39.90;;;;;;5094265;28;20464;-68
2021/01/01 00:37:43;;;;;;;22.70;12.70;;;20.40;40.00;;;;;;5094435;28;20383;-68
2021/01/01 00:40:08;;;;;;;25.92;13.80;;;20.40;40.00;;;;;;5094205;28;20026;-69
2021/01/01 00:42:37;;;;;;;24.45;13.77;;;20.40;40.00;;;;;;5077217;28;20384;-68
2021/01/01 00:45:05;;;;;;;25.00;13.48;;;20.40;40.00;;;;;;5093710;28;20024;-68
2021/01/01 00:47:30;;;;;;;24.08;13.80;;;20.30;39.90;;;;;;5075872;28;20036;-69
2021/01/01 00:49:56;;;;;;;25.35;15.77;;;20.30;39.90;;;;;;5076128;28;20028;-69
2021/01/01 00:52:21;;;;;;;25.73;13.75;;;20.30;39.90;;;;;;5094445;28;20063;-69
2021/01/01 00:54:47;;;;;;;23.33;12.07;;;20.30;40.00;;;;;;5093030;28;21941;-69
2021/01/01 00:57:12;;;;;;;26.05;14.30;;;20.30;40.00;;;;;;5092873;28;20399;-69
2021/01/01 00:59:38;;;;;;;27.15;14.23;;;20.30;40.10;;;;;;5075493;28;20523;-69
2021/01/01 01:02:03;;;;;;;22.95;13.10;;;20.30;40.10;;;;;;5092040;28;20409;-69
2021/01/01 01:04:29;;;;;;;20.13;11.82;;;20.20;40.00;;;;;;5093425;28;20660;-69
2021/01/01 01:06:54;;;;;;;21.58;10.70;;;20.20;40.10;;;;;;5092602;28;20449;-69
2021/01/01 01:09:20;;;;;;;21.63;12.77;;;20.20;40.10;;;;;;5093916;28;20529;-69
2021/01/01 01:11:46;;;;;;;27.48;14.85;;;20.20;40.10;;;;;;5074242;28;20499;-69
2021/01/01 01:14:11;;;;;;;27.08;15.43;;;20.20;40.70;;;;;;5083647;28;20517;-69
2021/01/01 01:16:37;;;;;;;26.73;14.23;;;20.20;40.00;;;;;;5069604;28;20463;-69
2021/01/01 01:19:02;;;;;;;28.13;15.68;;;20.20;40.00;;;;;;5108879;28;20047;-69
2021/01/01 01:21:28;;;;;;;28.70;14.55;;;20.10;39.90;;;;;;5091572;28;20038;-69
2021/01/01 01:23:54;;;;;;;25.95;13.75;;;20.20;40.00;;;;;;5074848;28;20019;-69
2021/01/01 01:26:20;;;;;;;27.70;14.90;;;20.10;39.90;;;;;;5093306;28;20059;-72
2021/01/01 01:28:46;;;;;;;26.83;14.02;;;20.10;40.00;;;;;;5109153;28;20432;-72
2021/01/01 01:31:11;;;;;;;28.40;14.82;;;20.10;39.90;;;;;;5075341;28;20034;-69
2021/01/01 01:33:37;;;;;;;23.88;13.57;;;20.10;39.90;;;;;;5098748;28;20111;-69
2021/01/01 01:36:49;;;;;;;23.63;12.75;;;20.10;39.90;;;;;;5074623;28;20048;-69
2021/01/01 01:39:15;;;;;;;23.80;13.02;;;20.10;39.80;;;;;;5093041;28;20032;-72
2021/01/01 01:41:41;;;;;;;23.77;13.25;;;20.10;39.80;;;;;;5074603;28;20373;-72
2021/01/01 01:44:06;;;;;;;25.70;14.15;;;20.20;39.80;;;;;;5077246;28;20024;-72
2021/01/01 01:46:42;;;;;;;28.08;13.70;;;20.20;39.80;;;;;;5075551;28;20032;-72
2021/01/01 01:49:13;;;;;;;22.70;12.55;;;20.10;39.70;;;;;;5092627;28;20020;-70
2021/01/01 01:51:40;;;;;;;29.08;15.23;;;20.10;39.70;;;;;;5093463;28;20028;-69
2021/01/01 01:54:20;;;;;;;25.30;12.90;;;20.10;39.70;;;;;;5074773;28;20089;-69
2021/01/01 01:56:46;;;;;;;25.02;12.85;;;20.10;39.70;;;;;;5108343;28;20384;-69
2021/01/01 01:59:15;;;;;;;29.70;13.77;;;20.10;39.60;;;;;;5092800;28;20032;-69
2021/01/01 02:01:41;;;;;;;22.42;14.48;;;20.10;39.60;;;;;;5108750;28;20023;-72
2021/01/01 02:04:07;;;;;;;22.00;12.35;;;20.10;39.70;;;;;;5075198;28;20051;-72
2021/01/01 02:06:32;;;;;;;31.02;16.10;;;20.10;39.80;;;;;;5092739;28;20091;-72
2021/01/01 02:08:58;;;;;;;29.35;14.95;;;20.10;39.80;;;;;;5092601;28;20406;-72
2021/01/01 02:11:24;;;;;;;27.27;15.60;;;20.10;39.80;;;;;;5092820;28;20544;-71
2021/01/01 02:13:52;;;;;;;25.13;14.60;;;20.10;39.80;;;;;;5069946;28;20376;-72
2021/01/01 02:16:18;;;;;;;31.10;15.35;;;20.10;39.90;;;;;;5092418;28;20027;-72
2021/01/01 02:18:43;;;;;;;34.55;16.20;;;20.10;39.90;;;;;;5070252;28;20074;-68
2021/01/01 02:21:12;;;;;;;26.15;15.30;;;20.10;39.90;;;;;;5071119;28;20078;-68
2021/01/01 02:23:38;;;;;;;28.42;15.75;;;20.10;39.90;;;;;;5072585;28;20064;-68
2021/01/01 02:26:04;;;;;;;26.73;14.98;;;20.00;39.80;;;;;;5071951;28;20553;-68
2021/01/01 02:28:30;;;;;;;29.08;16.75;;;20.10;39.90;;;;;;5053392;28;20032;-68
2021/01/01 02:30:56;;;;;;;28.40;14.88;;;20.00;39.90;;;;;;5072321;28;20048;-68
2021/01/01 02:33:21;;;;;;;26.73;14.18;;;20.00;39.90;;;;;;5079679;28;20033;-68
2021/01/01 02:35:47;;;;;;;24.63;14.48;;;20.00;39.90;;;;;;5072371;28;20033;-68
2021/01/01 02:38:12;;;;;;;27.67;15.13;;;20.00;39.90;;;;;;5072388;28;20053;-68
2021/01/01 02:40:38;;;;;;;38.03;17.42;;;20.00;39.90;;;;;;5070216;28;20021;-68
2021/01/01 02:43:03;;;;;;;28.65;14.85;;;20.00;39.90;;;;;;5072286;28;20060;-68
2021/01/01 02:45:29;;;;;;;29.15;15.90;;;20.00;39.90;;;;;;5072059;28;20031;-68
2021/01/01 02:47:55;;;;;;;30.67;15.48;;;20.00;40.00;;;;;;5071602;28;20048;-68
2021/01/01 02:50:20;;;;;;;30.60;15.88;;;19.90;40.00;;;;;;5070464;28;20032;-69
2021/01/01 02:52:46;;;;;;;25.60;13.30;;;19.90;40.70;;;;;;5071796;28;20141;-68
2021/01/01 02:55:12;;;;;;;26.40;14.90;;;19.90;40.10;;;;;;5072187;28;20059;-71
2021/01/01 02:57:38;;;;;;;24.02;13.60;;;19.90;40.10;;;;;;5071408;28;20023;-70
2021/01/01 03:00:07;;;;;;;33.75;15.82;;;19.90;40.20;;;;;;5071573;28;20021;-70
2021/01/01 03:02:32;;;;;;;31.70;15.40;;;19.90;40.20;;;;;;5072420;28;20051;-70
2021/01/01 03:04:58;;;;;;;28.42;16.70;;;19.90;40.20;;;;;;5070049;28;20550;-68
2021/01/01 03:07:24;;;;;;;29.05;16.13;;;19.90;40.20;;;;;;5071169;28;20035;-68
2021/01/01 03:09:49;;;;;;;28.70;15.93;;;19.80;40.10;;;;;;5071730;28;20032;-68
2021/01/01 03:12:15;;;;;;;26.40;14.95;;;19.90;40.20;;;;;;5071601;28;20739;-67
2021/01/01 03:14:40;;;;;;;31.20;16.75;;;19.90;40.20;;;;;;5053165;28;20464;-68
2021/01/01 03:17:06;;;;;;;29.25;15.65;;;19.90;40.10;;;;;;5071981;28;20039;-72
2021/01/01 03:19:31;;;;;;;29.33;16.65;;;19.90;40.10;;;;;;5085412;28;20454;-72
2021/01/01 03:21:57;;;;;;;28.35;14.35;;;19.90;40.00;;;;;;5091854;28;20396;-72
2021/01/01 03:24:22;;;;;;;28.77;14.15;;;19.90;40.00;;;;;;5091699;28;20044;-72
2021/01/01 03:26:48;;;;;;;26.38;14.38;;;19.90;40.00;;;;;;5073339;28;20094;-73
2021/01/01 03:29:13;;;;;;;32.58;16.15;;;19.90;40.00;;;;;;5091628;28;20020;-73
2021/01/01 03:31:39;;;;;;;30.10;14.35;;;19.90;40.00;;;;;;5091626;28;20085;-74
2021/01/01 03:34:04;;;;;;;28.83;15.07;;;19.90;39.90;;;;;;5090341;28;20032;-74
2021/01/01 03:36:30;;;;;;;30.35;15.85;;;19.80;39.90;;;;;;5091781;28;20112;-74
2021/01/01 03:38:59;;;;;;;27.70;15.02;;;19.90;39.90;;;;;;5091135;28;20024;-74
2021/01/01 03:41:24;;;;;;;29.67;14.55;;;19.80;39.90;;;;;;5091409;28;20032;-73
2021/01/01 03:43:50;;;;;;;27.95;14.57;;;19.80;39.80;;;;;;5073264;28;20034;-73
2021/01/01 03:46:15;;;;;;;29.27;13.93;;;19.80;39.90;;;;;;5091134;28;20025;-72
2021/01/01 03:48:41;;;;;;;27.70;15.20;;;19.80;39.90;;;;;;5091806;28;20039;-73
2021/01/01 03:51:06;;;;;;;28.95;15.23;;;19.80;39.90;;;;;;5089616;28;20553;-72
2021/01/01 03:53:32;;;;;;;8.02;4.38;;;19.80;39.90;;;;;;5090558;28;20398;-72
2021/01/01 03:55:58;;;;;;;29.02;15.20;;;19.80;40.00;;;;;;5071967;28;20090;-72
2021/01/01 03:58:23;;;;;;;26.60;15.23;;;19.80;40.00;;;;;;5091828;28;20402;-72
2021/01/01 04:00:49;;;;;;;25.55;13.80;;;19.80;40.00;;;;;;5091358;28;20467;-73
2021/01/01 04:03:14;;;;;;;27.02;16.25;;;19.70;40.00;;;;;;5091706;28;20021;-72
2021/01/01 04:05:40;;;;;;;27.95;14.63;;;19.70;40.60;;;;;;5094626;28;20060;-72
2021/01/01 04:08:05;;;;;;;26.80;13.68;;;19.70;40.00;;;;;;5076645;28;20032;-72
2021/01/01 04:10:31;;;;;;;24.92;12.77;;;19.70;40.00;;;;;;5095366;28;20039;-73
2021/01/01 04:12:56;;;;;;;27.98;14.20;;;19.70;40.00;;;;;;5071024;28;20024;-73
2021/01/01 04:15:22;;;;;;;27.50;13.27;;;19.70;40.00;;;;;;5095528;28;20046;-73
2021/01/01 04:21:23;;;;;;;27.92;13.35;;;19.70;40.10;;;;;;5085146;28;20043;-74
2021/01/01 04:23:49;;;;;;;29.15;14.27;;;19.70;40.10;;;;;;5094630;28;20028;-74
2021/01/01 04:26:14;;;;;;;26.23;13.95;;;19.70;40.10;;;;;;5076549;28;20040;-74
2021/01/01 04:28:40;;;;;;;27.38;14.25;;;19.70;40.10;;;;;;5110601;28;20040;-74
2021/01/01 04:31:05;;;;;;;27.10;11.60;;;19.60;40.10;;;;;;5094468;28;20032;-74
2021/01/01 04:33:31;;;;;;;25.58;13.75;;;19.60;40.10;;;;;;5075186;28;20047;-73
2021/01/01 04:36:21;;;;;;;20.92;10.85;;;19.60;40.10;;;;;;5094969;28;20047;-73
2021/01/01 04:38:47;;;;;;;25.25;12.88;;;19.60;40.10;;;;;;5095230;28;20030;-73
2021/01/01 04:41:12;;;;;;;23.15;10.30;;;19.60;40.20;;;;;;5094343;28;20497;-73
2021/01/01 04:43:38;;;;;;;22.13;12.30;;;19.60;40.30;;;;;;5075405;28;20545;-73
2021/01/01 04:46:04;;;;;;;24.20;10.65;;;19.60;40.30;;;;;;5094103;28;20422;-73
2021/01/01 04:48:35;;;;;;;23.85;13.30;;;19.60;40.40;;;;;;5094795;28;20089;-73
2021/01/01 04:51:01;;;;;;;20.40;10.93;;;19.60;40.40;;;;;;5076737;28;20035;-73
2021/01/01 04:53:26;;;;;;;19.38;11.07;;;19.60;40.40;;;;;;5093316;28;20035;-73
2021/01/01 04:55:53;;;;;;;20.63;11.52;;;19.60;40.30;;;;;;5047778;28;20399;-73
2021/01/01 04:58:18;;;;;;;16.20;7.70;;;19.60;40.30;;;;;;5093369;28;20399;-72
2021/01/01 05:00:44;;;;;;;19.17;10.35;;;19.60;40.30;;;;;;5092245;28;20024;-73
2021/01/01 05:03:10;;;;;;;10.25;3.40;;;19.60;40.30;;;;;;5063802;28;20035;-73
2021/01/01 05:05:35;;;;;;;8.18;3.53;;;19.60;40.30;;;;;;5075782;28;20024;-68
2021/01/01 05:08:01;;;;;;;10.38;4.05;;;19.60;40.20;;;;;;5094254;28;20039;-68
2021/01/01 05:10:26;;;;;;;5.63;3.38;;;19.60;40.10;;;;;;5092743;28;20036;-68
2021/01/01 05:12:52;;;;;;;7.22;3.25;;;19.70;40.00;;;;;;5078717;28;20028;-68
2021/01/01 05:15:34;;;;;;;9.15;4.20;;;19.70;39.90;;;;;;5083616;28;20488;-68
2021/01/01 05:18:25;;;;;;;10.07;3.25;;;19.80;39.80;;;;;;5075045;28;20036;-68
2021/01/01 05:20:54;;;;;;;8.68;3.97;;;19.90;39.70;;;;;;5093493;28;20115;-68
2021/01/01 05:23:22;;;;;;;7.85;3.75;;;20.00;39.60;;;;;;5094074;28;20016;-68
2021/01/01 05:25:48;;;;;;;6.20;3.35;;;20.00;39.40;;;;;;5085853;28;20141;-68
2021/01/01 05:28:14;;;;;;;7.88;3.33;;;20.10;39.30;;;;;;5105450;28;20063;-68
2021/01/01 05:30:51;;;;;;;8.25;3.10;;;20.10;39.20;;;;;;5093492;28;20035;-68
2021/01/01 05:33:17;;;;;;;5.78;3.38;;;20.20;39.10;;;;;;5057904;28;20084;-68
2021/01/01 05:35:42;;;;;;;6.53;3.03;;;20.20;39.00;;;;;;5109298;28;20181;-68
2021/01/01 05:38:21;;;;;;;7.10;3.05;;;20.30;39.00;;;;;;5109729;28;20023;-68
2021/01/01 05:40:49;;;;;;;4.80;2.92;;;20.30;38.90;;;;;;5093888;28;20483;-73
2021/01/01 05:43:18;;;;;;;4.38;2.95;;;20.30;38.90;;;;;;5108086;28;20399;-73
2021/01/01 05:45:44;;;;;;;5.72;2.65;;;20.30;38.90;;;;;;5092543;28;20417;-72
2021/01/01 05:48:10;;;;;;;5.70;2.53;;;20.40;39.50;;;;;;5108926;28;20162;-72
2021/01/01 05:50:35;;;;;;;4.45;2.53;;;20.40;38.80;;;;;;5109350;28;20036;-72
2021/01/01 05:53:19;;;;;;;4.72;2.67;;;20.40;38.80;;;;;;5109334;28;20028;-72
2021/01/01 05:55:46;;;;;;;3.88;2.10;;;20.50;38.80;;;;;;5085684;28;20170;-72
2021/01/01 05:58:25;;;;;;;5.07;2.55;;;20.50;38.80;;;;;;5091514;28;20020;-72
2021/01/01 06:00:56;;;;;;;3.58;2.50;;;20.50;38.80;;;;;;5107935;28;20016;-72
2021/01/01 06:03:25;;;;;;;3.83;2.35;;;20.50;38.80;;;;;;5093246;28;20491;-72
2021/01/01 06:05:55;;;;;;;5.22;2.67;;;20.50;38.80;;;;;;5092359;28;20024;-72
2021/01/01 06:08:25;;;;;;;4.85;2.90;;;20.50;38.80;;;;;;5092802;28;20024;-72
2021/01/01 06:10:51;;;;;;;5.63;2.50;;;20.50;38.90;;;;;;5089218;28;20157;-72
2021/01/01 06:13:18;;;;;;;5.50;1.90;;;20.50;38.90;;;;;;5099202;28;20044;-72
2021/01/01 06:15:43;;;;;;;2.50;2.05;;;20.50;38.90;;;;;;5092573;28;20082;-73
2021/01/01 06:18:09;;;;;;;4.10;2.13;;;20.50;38.90;;;;;;5108956;28;20411;-74
2021/01/01 06:20:35;;;;;;;2.65;1.85;;;20.50;38.90;;;;;;5099251;28;20044;-74
2021/01/01 06:23:05;;;;;;;3.05;2.33;;;20.50;39.00;;;;;;5051172;28;20029;-73
2021/01/01 06:25:31;;;;;;;4.22;2.20;;;20.60;39.00;;;;;;5051725;28;20033;-72
2021/01/01 06:27:56;;;;;;;4.38;2.58;;;20.60;39.00;;;;;;5047331;28;20442;-72
2021/01/01 06:30:25;;;;;;;4.75;2.53;;;20.50;39.00;;;;;;5052292;28;20033;-73
2021/01/01 06:32:51;;;;;;;5.13;2.60;;;20.60;39.00;;;;;;5051389;28;20792;-74
2021/01/01 06:35:32;;;;;;;3.20;2.28;;;20.60;39.10;;;;;;5051440;28;20488;-74
2021/01/01 06:37:57;;;;;;;7.22;2.33;;;20.60;39.10;;;;;;5050610;28;20420;-73
2021/01/01 06:40:26;;;;;;;5.32;2.65;;;20.60;39.20;;;;;;5051719;28;20034;-73
2021/01/01 06:43:07;;;;;;;5.78;2.88;;;20.60;39.30;;;;;;5050857;28;20021;-73
2021/01/01 06:45:43;;;;;;;2.78;1.98;;;20.60;39.20;;;;;;5050813;28;20076;-73
2021/01/01 06:48:09;;;;;;;6.68;2.63;;;20.60;39.20;;;;;;5049377;28;20036;-73
2021/01/01 06:50:36;;;;;;;3.75;2.42;;;20.60;39.20;;;;;;5051444;28;20096;-72
2021/01/01 06:53:12;;;;;;;4.25;2.30;;;20.60;39.20;;;;;;5051988;28;20496;-73
2021/01/01 06:55:45;;;;;;;5.03;2.33;;;20.60;39.20;;;;;;5045152;28;20039;-74
2021/01/01 06:58:11;;;;;;;5.07;2.25;;;20.60;39.10;;;;;;5046678;28;20051;-75
2021/01/01 07:00:49;;;;;;;4.35;2.38;;;20.60;39.10;;;;;;5050118;28;20128;-74
2021/01/01 07:03:29;;;;;;;2.05;1.52;;;20.60;39.10;;;;;;5051352;28;20032;-74
2021/01/01 07:05:55;;;;;;;3.90;2.65;;;20.60;39.00;;;;;;5051441;28;20031;-73
2021/01/01 07:08:39;;;;;;;3.30;1.92;;;20.60;39.00;;;;;;5051484;28;20033;-74
2021/01/01 07:11:11;;;;;;;2.40;1.63;;;20.70;39.10;;;;;;5046993;28;20025;-73
2021/01/01 07:13:46;;;;;;;2.60;1.83;;;20.60;39.00;;;;;;5046669;28;20512;-74
2021/01/01 07:16:12;;;;;;;;;;;20.70;39.10;;;;;;5047607;28;20056;-73
2021/01/01 07:18:38;;;;;;;3.83;1.90;;;20.70;39.00;;;;;;5051136;28;20014;-74
2021/01/01 07:21:06;;;;;;;4.32;1.88;;;20.60;39.00;;;;;;5042227;28;20590;-73
2021/01/01 07:23:32;;;;;;;2.55;1.73;;;20.60;39.00;;;;;;5052834;28;20502;-74
2021/01/01 07:25:58;;;;;;;2.65;1.85;;;20.70;39.00;;;;;;5051920;28;20136;-73
2021/01/01 07:28:24;;;;;;;2.70;1.80;;;20.70;39.00;;;;;;5050821;28;20170;-74
2021/01/01 07:34:12;;;;;;;2.25;1.58;;;20.70;39.00;;;;;;5049325;28;20028;-74
2021/01/01 07:36:37;;;;;;;3.55;1.77;;;20.70;39.00;;;;;;5051986;28;20029;-74
2021/01/01 07:39:04;;;;;;;1.48;1.30;;;20.70;39.00;;;;;;5051540;28;20029;-73
2021/01/01 07:41:29;;;;;;;3.97;1.73;;;20.70;39.00;;;;;;5037596;28;20033;-73
2021/01/01 07:43:55;;;;;;;3.67;1.90;;;20.70;39.00;;;;;;5055081;28;20090;-74
2021/01/01 07:46:21;;;;;;;2.78;1.58;;;20.70;39.00;;;;;;5055207;28;20067;-74
2021/01/01 07:48:54;;;;;;;4.18;2.00;;;20.70;39.00;;;;;;5032727;28;20040;-74
2021/01/01 07:51:20;;;;;;;3.08;1.30;;;20.70;38.90;;;;;;5054370;28;20033;-73
2021/01/01 07:53:45;;;;;;;3.13;1.73;;;20.70;38.90;;;;;;5054001;28;20563;-73
2021/01/01 07:59:33;;;;;;;2.30;1.60;;;20.70;38.90;;;;;;5055368;28;20087;-74
2021/01/01 08:01:59;;;;;;;2.28;1.63;;;20.70;39.50;;;;;;5055655;28;20029;-74
2021/01/01 08:04:27;;;;;;;2.45;1.55;;;20.70;38.90;;;;;;5056124;28;20029;-74
2021/01/01 08:06:56;;;;;;;2.90;1.88;;;20.70;38.80;;;;;;5014115;28;20091;-74
2021/01/01 08:09:24;;;;;;;2.15;1.50;;;20.70;38.80;;;;;;5055452;28;20040;-73
2021/01/01 08:11:50;;;;;;;2.17;1.40;;;20.70;38.80;;;;;;5055436;28;20033;-74
2021/01/01 08:14:20;;;;;;;0.98;0.98;;;20.70;38.80;;;;;;5052616;28;20503;-73
2021/01/01 08:16:45;;;;;;;3.33;1.67;;;20.70;38.90;;;;;;5053482;28;20504;-74
2021/01/01 08:19:11;;;;;;;3.53;1.65;;;20.70;38.90;;;;;;5052179;28;20021;-74
2021/01/01 08:21:39;;;;;;;1.73;1.45;;;20.80;38.90;;;;;;5064636;28;20049;-74
2021/01/01 08:24:11;;;;;;;2.25;1.30;;;20.70;39.00;;;;;;5089418;28;20123;-72
2021/01/01 08:26:37;;;;;;;1.98;1.35;;;20.70;39.00;;;;;;5090294;28;20024;-72
2021/01/01 08:29:04;;;;;;;1.52;1.35;;;20.70;39.00;;;;;;5089709;28;20656;-73
2021/01/01 08:31:30;;;;;;;2.97;1.50;;;20.80;39.10;;;;;;5073138;28;20016;-72
2021/01/01 08:34:10;;;;;;;1.65;1.08;;;20.80;39.00;;;;;;5074521;28;20077;-69
2021/01/01 08:36:36;;;;;;;1.20;0.90;;;20.80;39.00;;;;;;5073241;28;20064;-68
2021/01/01 08:39:05;;;;;;;1.65;1.33;;;20.70;39.00;;;;;;5072933;28;20095;-72
2021/01/01 08:41:31;;;;;;;2.05;1.60;;;20.80;39.00;;;;;;5074442;28;20083;-68
2021/01/01 08:43:57;;;;;;;2.00;1.40;;;20.80;39.00;;;;;;5073049;28;20021;-68
2021/01/01 08:46:22;;;;;;;1.85;1.40;;;20.80;39.00;;;;;;5074774;28;20021;-68
2021/01/01 08:48:48;;;;;;;4.35;1.65;;;20.80;39.00;;;;;;5074176;28;20031;-68
2021/01/01 08:51:13;;;;;;;1.00;1.00;;;20.80;39.00;;;;;;5051783;28;20036;-68
2021/01/01 08:53:40;;;;;;;1.77;1.35;;;20.80;39.00;;;;;;5072777;28;20041;-68
2021/01/01 08:56:06;;;;;;;2.15;1.38;;;20.80;38.90;;;;;;5073366;28;20153;-68
2021/01/01 08:58:32;;;;;;;1.80;1.35;;;20.80;38.80;;;;;;5076754;28;20028;-68
2021/01/01 09:00:58;;;;;;;1.23;1.13;;;20.80;38.80;;;;;;5105252;28;20047;-68
2021/01/01 09:03:23;;;;;;;1.90;1.08;;;20.80;38.70;;;;;;5055879;28;20021;-68
2021/01/01 09:05:58;;;;;;;3.22;1.20;;;20.80;38.70;;;;;;5072546;28;20024;-68
2021/01/01 09:08:24;;;;;;;3.67;1.43;;;20.80;38.70;;;;;;5072839;28;20114;-68
2021/01/01 09:10:52;;;;;;;4.18;1.30;;;20.80;38.70;;;;;;5073332;28;20063;-67
2021/01/01 09:13:25;;;;;;;0.98;0.88;;;20.80;38.70;;;;;;5072100;28;20025;-68
2021/01/01 09:16:04;;;;;;;1.67;0.77;;;20.80;38.80;;;;;;5071381;28;20068;-68
2021/01/01 09:18:30;;;;;;;2.53;1.05;;;20.90;38.80;;;;;;5073318;28;20213;-67
2021/01/01 09:21:12;;;;;;;3.20;1.40;;;20.90;38.70;;;;;;5076468;28;20104;-68
2021/01/01 09:23:42;;;;;;;2.45;0.77;;;20.90;38.60;;;;;;5059198;28;20020;-68
2021/01/01 09:26:07;;;;;;;1.02;0.90;;;20.90;38.60;;;;;;5093986;28;20155;-68
2021/01/01 09:28:34;;;;;;;1.50;0.90;;;20.90;38.60;;;;;;5092924;28;20112;-68
2021/01/01 09:30:59;;;;;;;1.85;1.00;;;20.90;38.50;;;;;;5093599;28;20028;-68
2021/01/01 09:33:25;;;;;;;1.50;0.93;;;20.90;38.50;;;;;;5074994;28;20169;-68
2021/01/01 09:36:19;;;;;;;2.97;0.80;;;20.90;38.40;;;;;;5109638;28;20035;-68
2021/01/01 09:38:44;;;;;;;1.15;0.70;;;20.90;38.50;;;;;;5092374;28;20031;-68
2021/01/01 09:41:10;;;;;;;0.98;0.95;;;20.90;38.40;;;;;;5092478;28;20403;-68
2021/01/01 09:43:35;;;;;;;1.63;0.98;;;21.00;38.40;;;;;;5092682;28;20035;-68
2021/01/01 09:46:01;;;;;;;1.55;0.70;;;20.90;38.40;;;;;;5092878;28;20038;-68
2021/01/01 09:48:26;;;;;;;2.47;0.60;;;20.90;38.40;;;;;;5094995;28;20024;-68
2021/01/01 09:50:55;;;;;;;0.77;0.77;;;20.90;38.40;;;;;;5092745;28;20028;-68
2021/01/01 09:53:21;;;;;;;1.40;0.88;;;20.90;38.40;;;;;;5078608;28;20063;-68
2021/01/01 09:55:46;;;;;;;1.40;1.20;;;21.00;38.40;;;;;;5057664;28;20072;-68
2021/01/01 09:58:12;;;;;;;0.57;0.30;;;20.90;38.40;;;;;;5069750;28;20055;-68
2021/01/01 10:00:37;;;;;;;0.75;0.50;;;20.90;38.40;;;;;;5091552;28;20028;-67
2021/01/01 10:03:03;;;;;;;0.30;0.30;;;20.90;39.10;;;;;;5092542;28;20016;-68
2021/01/01 10:05:29;;;;;;;0.52;0.43;;;20.90;38.40;;;;;;5092132;28;20043;-67
2021/01/01 10:07:55;;;;;;;1.02;0.60;;;20.90;38.30;;;;;;5086282;28;20020;-69
2021/01/01 10:10:20;;;;;;;0.40;0.40;;;20.90;38.20;;;;;;5090570;28;20535;-68
2021/01/01 10:12:46;;;;;;;0.35;0.35;;;20.90;38.10;;;;;;5090893;28;20034;-68
2021/01/01 10:15:11;;;;;;;0.85;0.47;;;21.00;38.00;;;;;;5090504;28;20056;-69
2021/01/01 10:17:37;;;;;;;1.20;0.50;;;21.00;37.80;;;;;;5091130;28;20553;-68
2021/01/01 10:20:03;;;;;;;1.10;0.70;;;21.10;37.70;;;;;;5091735;28;20079;-71
2021/01/01 10:22:29;;;;;;;0.75;0.40;;;21.10;37.50;;;;;;5088390;28;20642;-70
2021/01/01 10:24:54;;;;;;;1.42;0.70;;;21.10;37.50;;;;;;5108521;28;20103;-70
2021/01/01 10:27:20;;;;;;;1.55;0.98;;;21.10;37.50;;;;;;5072624;28;20636;-71
2021/01/01 10:29:45;;;;;;;3.92;0.75;;;21.20;37.50;;;;;;5072809;28;20028;-73
2021/01/01 10:32:11;;;;;;;1.48;0.63;;;21.20;37.50;;;;;;5090824;28;20036;-73
2021/01/01 10:34:38;;;;;;;0.50;0.35;;;21.20;37.50;;;;;;5090882;28;20028;-73
2021/01/01 10:37:03;;;;;;;0.65;0.60;;;21.20;37.50;;;;;;5057202;28;20161;-73
2021/01/01 10:39:29;;;;;;;1.58;0.95;;;21.20;37.40;;;;;;5073831;28;20065;-73
2021/01/01 10:41:54;;;;;;;2.53;1.08;;;21.20;37.40;;;;;;5091989;28;20063;-73
2021/01/01 10:44:20;;;;;;;0.50;0.50;;;21.20;37.40;;;;;;5073149;28;20040;-73
2021/01/01 10:46:55;;;;;;;1.08;0.77;;;21.10;37.40;;;;;;5091339;28;20020;-73
2021/01/01 10:49:24;;;;;;;0.98;0.60;;;21.10;37.40;;;;;;5066204;28;20074;-73
2021/01/01 10:51:50;;;;;;;3.08;0.90;;;21.10;37.40;;;;;;5089918;28;20024;-72
2021/01/01 10:54:15;;;;;;;0.40;0.40;;;21.20;37.40;;;;;;5100457;28;20385;-70
2021/01/01 10:56:43;;;;;;;0.73;0.60;;;21.20;37.40;;;;;;5107653;28;20032;-71
2021/01/01 10:59:09;;;;;;;1.92;0.73;;;21.20;37.40;;;;;;5091852;28;20028;-71
2021/01/01 11:01:34;;;;;;;0.70;0.68;;;21.20;37.30;;;;;;5091673;28;20032;-70
2021/01/01 11:04:03;;;;;;;0.98;0.60;;;21.20;37.30;;;;;;5074578;28;20081;-71
2021/01/01 11:06:29;;;;;;;0.55;0.52;;;21.20;37.30;;;;;;5090503;28;20472;-71
2021/01/01 11:09:09;;;;;;;1.35;0.60;;;21.10;37.30;;;;;;5106615;28;20047;-71
2021/01/01 11:11:35;;;;;;;1.58;0.70;;;21.10;37.30;;;;;;5090551;28;20115;-71
2021/01/01 11:14:09;;;;;;;0.22;0.22;;;21.10;37.20;;;;;;5104208;28;20115;-70
2021/01/01 12:25:17;;;;;;;0.77;0.75;;;21.00;37.00;;;;;;5036333;28;20627;-73
2021/01/01 12:27:42;;;;;;;1.63;0.70;;;21.00;37.00;;;;;;5051905;28;20029;-73
2021/01/01 12:30:09;;;;;;;1.85;0.90;;;21.00;37.10;;;;;;5047759;28;20087;-73
2021/01/01 12:32:38;;;;;;;1.38;0.90;;;21.00;37.10;;;;;;5066963;28;20052;-73
2021/01/01 12:35:05;;;;;;;0.60;0.50;;;21.00;37.10;;;;;;5035443;28;20037;-73
2021/01/01 12:37:40;;;;;;;2.55;0.73;;;21.00;37.10;;;;;;5066762;28;20078;-73
2021/01/01 12:40:09;;;;;;;2.58;1.00;;;21.00;37.10;;;;;;5082195;28;20504;-73
2021/01/01 12:42:35;;;;;;;2.30;1.25;;;21.00;37.20;;;;;;5026853;28;20124;-73
2021/01/01 12:45:00;;;;;;;1.27;0.90;;;20.90;37.20;;;;;;5068139;28;20126;-73
2021/01/01 12:47:26;;;;;;;2.97;0.88;;;20.90;37.20;;;;;;5050492;28;20095;-73
2021/01/01 12:49:52;;;;;;;1.45;1.02;;;20.90;37.20;;;;;;5084675;28;20028;-73
2021/01/01 12:52:21;;;;;;;0.52;0.45;;;20.90;37.30;;;;;;5049426;28;20032;-73
2021/01/01 12:54:47;;;;;;;1.08;0.98;;;20.90;37.30;;;;;;5050903;28;20025;-73
2021/01/01 12:57:12;;;;;;;2.72;0.93;;;20.80;37.40;;;;;;5049696;28;20029;-73
2021/01/01 12:59:38;;;;;;;1.63;1.10;;;20.80;37.40;;;;;;5049642;28;20045;-73
2021/01/01 13:02:06;;;;;;;2.67;0.88;;;20.80;37.40;;;;;;5049516;28;20091;-73
2021/01/01 13:04:32;;;;;;;0.77;0.63;;;20.90;37.30;;;;;;5051242;28;20078;-73
2021/01/01 13:06:58;;;;;;;2.45;1.08;;;20.90;37.30;;;;;;5051297;28;20029;-73
2021/01/01 13:09:23;;;;;;;2.25;0.80;;;21.00;37.20;;;;;;5050590;28;20028;-73
2021/01/01 13:11:49;;;;;;;1.25;0.98;;;21.10;37.20;;;;;;5051465;28;20040;-71
2021/01/01 13:14:14;;;;;;;1.52;0.90;;;21.20;37.00;;;;;;5051349;28;20032;-72
2021/01/01 13:16:41;;;;;;;1.15;0.90;;;21.20;36.90;;;;;;5051296;28;20089;-72
2021/01/01 13:19:07;;;;;;;1.25;0.70;;;21.30;36.80;;;;;;5050404;28;20044;-71
2021/01/01 13:21:41;;;;;;;3.10;0.63;;;21.30;36.80;;;;;;5067728;28;20052;-71
2021/01/01 13:24:10;;;;;;;1.40;1.10;;;21.30;36.70;;;;;;5087903;28;20024;-73
2021/01/01 13:26:35;;;;;;;1.20;1.02;;;21.30;36.60;;;;;;5061419;28;20040;-74
2021/01/01 13:29:02;;;;;;;0.55;0.52;;;21.40;36.60;;;;;;5105337;28;20048;-73
2021/01/01 13:31:35;;;;;;;2.50;1.15;;;21.40;36.60;;;;;;5091088;28;20036;-73
2021/01/01 13:34:02;;;;;;;3.10;1.25;;;21.40;36.50;;;;;;5091547;28;20016;-74
2021/01/01 13:36:27;;;;;;;1.00;0.75;;;21.40;36.40;;;;;;5069307;28;20549;-73
2021/01/01 13:38:53;;;;;;;1.85;0.73;;;21.50;37.10;;;;;;5089932;28;20024;-72
2021/01/01 13:41:19;;;;;;;1.05;0.80;;;21.50;36.40;;;;;;5105527;28;20024;-71
2021/01/01 13:44:18;;;;;;;2.28;0.85;;;21.50;36.40;;;;;;5088148;28;20433;-74
2021/01/01 13:46:44;;;;;;;1.10;0.73;;;21.50;36.40;;;;;;5080685;28;20039;-72
2021/01/01 13:49:09;;;;;;;0.88;0.82;;;21.50;36.40;;;;;;5100249;28;20028;-74
2021/01/01 13:51:35;;;;;;;1.65;0.90;;;21.60;36.40;;;;;;5088187;28;20383;-73
2021/01/01 13:54:02;;;;;;;2.42;1.30;;;21.60;36.30;;;;;;5086542;28;20241;-73
2021/01/01 13:56:27;;;;;;;1.20;0.93;;;21.50;36.30;;;;;;5101146;28;20028;-73
2021/01/01 13:58:53;;;;;;;1.73;0.95;;;21.50;36.20;;;;;;5083071;28;20046;-73
2021/01/01 14:01:20;;;;;;;1.58;1.10;;;21.50;36.30;;;;;;5084457;28;20144;-72